sensor_id;sensor_type;location;lat;lon;timestamp;P1;durP1;ratioP1;P2;durP2;ratioP2
11076;SDS011;5591;42.626;23.380;2023-02-22T00:00:09;12.23;;;6.70;;
11076;SDS011;5591;42.626;23.380;2023-02-22T00:02:43;11.30;;;6.10;;
11076;SDS011;5591;42.626;23.380;2023-02-22T00:05:10;9.17;;;5.80;;
11076;SDS011;5591;42.626;23.380;2023-02-22T00:07:39;7.27;;;5.37;;
11076;SDS011;5591;42.626;23.380;2023-02-22T00:10:06;10.97;;;6.37;;
11076;SDS011;5591;42.626;23.380;2023-02-22T00:12:38;9.00;;;6.00;;
11076;SDS011;5591;42.626;23.380;2023-02-22T00:15:05;8.50;;;5.63;;
11076;SDS011;5591;42.626;23.380;2023-02-22T00:17:32;7.33;;;5.03;;
11076;SDS011;5591;42.626;23.380;2023-02-22T00:19:58;8.37;;;4.97;;
11076;SDS011;5591;42.626;23.380;2023-02-22T00:22:25;6.83;;;4.77;;
11076;SDS011;5591;42.626;23.380;2023-02-22T00:24:51;6.87;;;4.77;;
11076;SDS011;5591;42.626;23.380;2023-02-22T00:27:19;7.27;;;4.83;;
11076;SDS011;5591;42.626;23.380;2023-02-22T00:29:47;7.23;;;4.60;;
11076;SDS011;5591;42.626;23.380;2023-02-22T00:32:13;8.07;;;4.80;;
11076;SDS011;5591;42.626;23.380;2023-02-22T00:34:40;9.90;;;5.43;;
11076;SDS011;5591;42.626;23.380;2023-02-22T00:37:07;8.40;;;5.27;;
11076;SDS011;5591;42.626;23.380;2023-02-22T00:39:34;9.37;;;5.10;;
11076;SDS011;5591;42.626;23.380;2023-02-22T00:42:01;7.53;;;4.87;;
11076;SDS011;5591;42.626;23.380;2023-02-22T00:44:28;7.83;;;4.50;;
11076;SDS011;5591;42.626;23.380;2023-02-22T00:46:55;6.83;;;4.30;;
11076;SDS011;5591;42.626;23.380;2023-02-22T00:49:22;9.20;;;5.10;;
11076;SDS011;5591;42.626;23.380;2023-02-22T00:51:50;6.93;;;3.90;;
11076;SDS011;5591;42.626;23.380;2023-02-22T00:54:16;8.13;;;4.30;;
11076;SDS011;5591;42.626;23.380;2023-02-22T00:56:44;7.23;;;4.27;;
11076;SDS011;5591;42.626;23.380;2023-02-22T00:59:11;8.63;;;4.00;;
11076;SDS011;5591;42.626;23.380;2023-02-22T01:01:37;5.93;;;4.30;;
11076;SDS011;5591;42.626;23.380;2023-02-22T01:04:05;6.50;;;4.10;;
11076;SDS011;5591;42.626;23.380;2023-02-22T01:06:32;7.00;;;4.13;;
11076;SDS011;5591;42.626;23.380;2023-02-22T01:08:58;6.27;;;3.90;;
11076;SDS011;5591;42.626;23.380;2023-02-22T01:11:26;7.17;;;4.30;;
11076;SDS011;5591;42.626;23.380;2023-02-22T01:13:52;6.77;;;3.90;;
11076;SDS011;5591;42.626;23.380;2023-02-22T01:16:19;6.73;;;3.63;;
11076;SDS011;5591;42.626;23.380;2023-02-22T01:18:46;6.00;;;3.73;;
11076;SDS011;5591;42.626;23.380;2023-02-22T01:21:14;5.77;;;4.10;;
11076;SDS011;5591;42.626;23.380;2023-02-22T01:23:42;5.30;;;3.63;;
11076;SDS011;5591;42.626;23.380;2023-02-22T01:26:09;7.87;;;4.40;;
11076;SDS011;5591;42.626;23.380;2023-02-22T01:28:36;6.40;;;4.17;;
11076;SDS011;5591;42.626;23.380;2023-02-22T01:31:02;4.33;;;3.47;;
11076;SDS011;5591;42.626;23.380;2023-02-22T01:33:29;5.40;;;3.77;;
11076;SDS011;5591;42.626;23.380;2023-02-22T01:35:56;6.27;;;3.60;;
11076;SDS011;5591;42.626;23.380;2023-02-22T01:38:25;5.67;;;3.57;;
11076;SDS011;5591;42.626;23.380;2023-02-22T01:40:51;5.53;;;3.73;;
11076;SDS011;5591;42.626;23.380;2023-02-22T01:43:19;4.87;;;3.27;;
11076;SDS011;5591;42.626;23.380;2023-02-22T01:45:50;4.20;;;3.30;;
11076;SDS011;5591;42.626;23.380;2023-02-22T01:48:19;4.90;;;3.30;;
11076;SDS011;5591;42.626;23.380;2023-02-22T01:50:48;4.60;;;3.00;;
11076;SDS011;5591;42.626;23.380;2023-02-22T01:53:18;4.63;;;3.17;;
11076;SDS011;5591;42.626;23.380;2023-02-22T01:55:46;4.73;;;3.10;;
11076;SDS011;5591;42.626;23.380;2023-02-22T01:58:13;4.10;;;2.90;;
11076;SDS011;5591;42.626;23.380;2023-02-22T02:00:41;3.90;;;2.90;;
11076;SDS011;5591;42.626;23.380;2023-02-22T02:03:10;3.80;;;2.80;;
11076;SDS011;5591;42.626;23.380;2023-02-22T02:05:37;4.03;;;2.63;;
11076;SDS011;5591;42.626;23.380;2023-02-22T02:08:05;3.03;;;2.57;;
11076;SDS011;5591;42.626;23.380;2023-02-22T02:10:33;3.43;;;2.27;;
11076;SDS011;5591;42.626;23.380;2023-02-22T02:13:01;2.70;;;2.13;;
11076;SDS011;5591;42.626;23.380;2023-02-22T02:15:29;2.90;;;2.40;;
11076;SDS011;5591;42.626;23.380;2023-02-22T02:17:56;3.23;;;2.30;;
11076;SDS011;5591;42.626;23.380;2023-02-22T02:20:26;2.87;;;2.27;;
11076;SDS011;5591;42.626;23.380;2023-02-22T02:22:53;2.57;;;2.37;;
11076;SDS011;5591;42.626;23.380;2023-02-22T02:33:37;3.77;;;2.90;;
11076;SDS011;5591;42.626;23.380;2023-02-22T02:36:08;4.30;;;2.77;;
11076;SDS011;5591;42.626;23.380;2023-02-22T02:38:40;4.00;;;2.83;;
11076;SDS011;5591;42.626;23.380;2023-02-22T02:41:09;4.17;;;2.73;;
11076;SDS011;5591;42.626;23.380;2023-02-22T02:43:41;6.33;;;3.00;;
11076;SDS011;5591;42.626;23.380;2023-02-22T02:46:11;3.87;;;2.87;;
11076;SDS011;5591;42.626;23.380;2023-02-22T02:48:41;5.40;;;2.83;;
11076;SDS011;5591;42.626;23.380;2023-02-22T02:51:09;3.87;;;2.83;;
11076;SDS011;5591;42.626;23.380;2023-02-22T02:53:39;3.77;;;2.70;;
11076;SDS011;5591;42.626;23.380;2023-02-22T02:56:07;3.60;;;2.60;;
11076;SDS011;5591;42.626;23.380;2023-02-22T02:58:41;5.33;;;3.40;;
11076;SDS011;5591;42.626;23.380;2023-02-22T03:01:09;5.57;;;3.57;;
11076;SDS011;5591;42.626;23.380;2023-02-22T03:03:45;3.23;;;2.60;;
11076;SDS011;5591;42.626;23.380;2023-02-22T03:08:56;3.83;;;2.80;;
11076;SDS011;5591;42.626;23.380;2023-02-22T03:11:26;7.37;;;3.67;;
11076;SDS011;5591;42.626;23.380;2023-02-22T03:13:55;8.40;;;4.50;;
11076;SDS011;5591;42.626;23.380;2023-02-22T03:16:28;7.60;;;4.03;;
11076;SDS011;5591;42.626;23.380;2023-02-22T03:19:01;6.33;;;3.90;;
11076;SDS011;5591;42.626;23.380;2023-02-22T03:21:30;4.73;;;3.10;;
11076;SDS011;5591;42.626;23.380;2023-02-22T03:24:01;4.27;;;3.10;;
11076;SDS011;5591;42.626;23.380;2023-02-22T03:26:33;5.30;;;3.50;;
11076;SDS011;5591;42.626;23.380;2023-02-22T03:29:00;6.13;;;3.53;;
11076;SDS011;5591;42.626;23.380;2023-02-22T03:31:30;5.63;;;3.30;;
11076;SDS011;5591;42.626;23.380;2023-02-22T03:34:03;4.33;;;3.10;;
11076;SDS011;5591;42.626;23.380;2023-02-22T03:36:32;5.30;;;3.20;;
11076;SDS011;5591;42.626;23.380;2023-02-22T03:39:03;5.73;;;3.30;;
11076;SDS011;5591;42.626;23.380;2023-02-22T03:41:31;5.13;;;3.00;;
11076;SDS011;5591;42.626;23.380;2023-02-22T03:43:59;3.77;;;2.57;;
11076;SDS011;5591;42.626;23.380;2023-02-22T03:46:27;3.30;;;2.50;;
11076;SDS011;5591;42.626;23.380;2023-02-22T03:48:55;3.47;;;2.53;;
11076;SDS011;5591;42.626;23.380;2023-02-22T03:51:26;3.70;;;2.50;;
11076;SDS011;5591;42.626;23.380;2023-02-22T03:53:53;4.23;;;2.90;;
11076;SDS011;5591;42.626;23.380;2023-02-22T03:56:21;3.63;;;2.53;;
11076;SDS011;5591;42.626;23.380;2023-02-22T03:58:48;3.47;;;2.37;;
11076;SDS011;5591;42.626;23.380;2023-02-22T04:01:16;4.13;;;2.57;;
11076;SDS011;5591;42.626;23.380;2023-02-22T04:03:43;3.23;;;2.40;;
11076;SDS011;5591;42.626;23.380;2023-02-22T04:06:11;7.80;;;2.70;;
11076;SDS011;5591;42.626;23.380;2023-02-22T04:08:39;5.10;;;2.60;;
11076;SDS011;5591;42.626;23.380;2023-02-22T04:11:08;3.40;;;2.43;;
11076;SDS011;5591;42.626;23.380;2023-02-22T04:13:35;4.60;;;3.53;;
11076;SDS011;5591;42.626;23.380;2023-02-22T04:16:01;3.13;;;2.67;;
11076;SDS011;5591;42.626;23.380;2023-02-22T04:18:28;2.77;;;2.30;;
11076;SDS011;5591;42.626;23.380;2023-02-22T04:20:54;4.57;;;3.33;;
11076;SDS011;5591;42.626;23.380;2023-02-22T04:23:21;6.07;;;3.73;;
11076;SDS011;5591;42.626;23.380;2023-02-22T04:25:49;4.83;;;2.97;;
11076;SDS011;5591;42.626;23.380;2023-02-22T04:28:15;4.57;;;2.90;;
11076;SDS011;5591;42.626;23.380;2023-02-22T04:30:42;4.30;;;3.17;;
11076;SDS011;5591;42.626;23.380;2023-02-22T04:33:09;4.40;;;2.60;;
11076;SDS011;5591;42.626;23.380;2023-02-22T04:35:36;3.53;;;2.80;;
11076;SDS011;5591;42.626;23.380;2023-02-22T04:38:03;3.67;;;2.80;;
11076;SDS011;5591;42.626;23.380;2023-02-22T04:40:29;3.80;;;3.10;;
11076;SDS011;5591;42.626;23.380;2023-02-22T04:42:57;4.00;;;3.10;;
11076;SDS011;5591;42.626;23.380;2023-02-22T04:45:24;4.40;;;3.20;;
11076;SDS011;5591;42.626;23.380;2023-02-22T04:47:50;4.70;;;3.20;;
11076;SDS011;5591;42.626;23.380;2023-02-22T04:50:17;6.63;;;3.50;;
11076;SDS011;5591;42.626;23.380;2023-02-22T04:52:43;5.93;;;3.33;;
11076;SDS011;5591;42.626;23.380;2023-02-22T04:55:11;5.30;;;3.33;;
11076;SDS011;5591;42.626;23.380;2023-02-22T04:57:38;4.93;;;3.30;;
11076;SDS011;5591;42.626;23.380;2023-02-22T05:00:06;4.40;;;3.00;;
11076;SDS011;5591;42.626;23.380;2023-02-22T05:02:34;4.00;;;3.00;;
11076;SDS011;5591;42.626;23.380;2023-02-22T05:05:00;8.87;;;3.30;;
11076;SDS011;5591;42.626;23.380;2023-02-22T05:07:27;7.83;;;3.10;;
11076;SDS011;5591;42.626;23.380;2023-02-22T05:09:53;4.20;;;2.90;;
11076;SDS011;5591;42.626;23.380;2023-02-22T05:12:20;3.97;;;2.93;;
11076;SDS011;5591;42.626;23.380;2023-02-22T05:14:46;4.43;;;3.10;;
11076;SDS011;5591;42.626;23.380;2023-02-22T05:17:14;5.43;;;3.50;;
11076;SDS011;5591;42.626;23.380;2023-02-22T05:19:41;6.23;;;4.63;;
11076;SDS011;5591;42.626;23.380;2023-02-22T05:22:07;5.20;;;4.10;;
11076;SDS011;5591;42.626;23.380;2023-02-22T05:24:34;10.17;;;6.67;;
11076;SDS011;5591;42.626;23.380;2023-02-22T05:27:00;7.33;;;4.90;;
11076;SDS011;5591;42.626;23.380;2023-02-22T05:29:27;7.33;;;5.10;;
11076;SDS011;5591;42.626;23.380;2023-02-22T05:31:53;6.40;;;4.10;;
11076;SDS011;5591;42.626;23.380;2023-02-22T05:34:21;5.10;;;3.50;;
11076;SDS011;5591;42.626;23.380;2023-02-22T05:36:48;6.27;;;3.70;;
11076;SDS011;5591;42.626;23.380;2023-02-22T05:39:14;9.00;;;3.90;;
11076;SDS011;5591;42.626;23.380;2023-02-22T05:41:41;5.17;;;4.30;;
11076;SDS011;5591;42.626;23.380;2023-02-22T05:44:07;7.57;;;4.30;;
11076;SDS011;5591;42.626;23.380;2023-02-22T05:46:34;5.10;;;3.90;;
11076;SDS011;5591;42.626;23.380;2023-02-22T05:49:00;8.03;;;4.27;;
11076;SDS011;5591;42.626;23.380;2023-02-22T05:51:28;9.80;;;5.27;;
11076;SDS011;5591;42.626;23.380;2023-02-22T05:53:54;9.00;;;4.23;;
11076;SDS011;5591;42.626;23.380;2023-02-22T05:56:22;8.13;;;4.30;;
11076;SDS011;5591;42.626;23.380;2023-02-22T05:58:49;6.73;;;4.70;;
11076;SDS011;5591;42.626;23.380;2023-02-22T06:01:15;12.63;;;6.17;;
11076;SDS011;5591;42.626;23.380;2023-02-22T06:03:45;6.93;;;4.23;;
11076;SDS011;5591;42.626;23.380;2023-02-22T06:06:11;7.23;;;4.00;;
11076;SDS011;5591;42.626;23.380;2023-02-22T06:08:39;5.17;;;3.73;;
11076;SDS011;5591;42.626;23.380;2023-02-22T06:11:06;9.83;;;4.40;;
11076;SDS011;5591;42.626;23.380;2023-02-22T06:13:33;6.80;;;4.30;;
11076;SDS011;5591;42.626;23.380;2023-02-22T06:16:00;6.00;;;3.97;;
11076;SDS011;5591;42.626;23.380;2023-02-22T06:18:26;10.73;;;4.70;;
11076;SDS011;5591;42.626;23.380;2023-02-22T06:20:55;16.90;;;4.60;;
11076;SDS011;5591;42.626;23.380;2023-02-22T06:23:21;10.77;;;4.80;;
11076;SDS011;5591;42.626;23.380;2023-02-22T06:25:49;8.50;;;5.27;;
11076;SDS011;5591;42.626;23.380;2023-02-22T06:28:15;10.60;;;5.30;;
11076;SDS011;5591;42.626;23.380;2023-02-22T06:30:42;13.27;;;6.20;;
11076;SDS011;5591;42.626;23.380;2023-02-22T06:33:10;12.77;;;5.60;;
11076;SDS011;5591;42.626;23.380;2023-02-22T06:35:36;17.27;;;7.10;;
11076;SDS011;5591;42.626;23.380;2023-02-22T06:38:03;12.90;;;6.47;;
11076;SDS011;5591;42.626;23.380;2023-02-22T06:40:29;12.33;;;6.27;;
11076;SDS011;5591;42.626;23.380;2023-02-22T06:42:57;17.87;;;10.10;;
11076;SDS011;5591;42.626;23.380;2023-02-22T06:45:24;12.20;;;7.37;;
11076;SDS011;5591;42.626;23.380;2023-02-22T06:47:50;17.47;;;8.73;;
11076;SDS011;5591;42.626;23.380;2023-02-22T06:50:18;12.50;;;6.57;;
11076;SDS011;5591;42.626;23.380;2023-02-22T06:52:45;17.97;;;6.53;;
11076;SDS011;5591;42.626;23.380;2023-02-22T06:55:15;17.77;;;7.33;;
11076;SDS011;5591;42.626;23.380;2023-02-22T06:57:41;22.43;;;7.30;;
11076;SDS011;5591;42.626;23.380;2023-02-22T07:00:10;12.47;;;6.77;;
11076;SDS011;5591;42.626;23.380;2023-02-22T07:02:37;13.40;;;5.80;;
11076;SDS011;5591;42.626;23.380;2023-02-22T07:05:03;13.57;;;5.07;;
11076;SDS011;5591;42.626;23.380;2023-02-22T07:07:30;10.67;;;4.67;;
11076;SDS011;5591;42.626;23.380;2023-02-22T07:09:56;9.23;;;4.37;;
11076;SDS011;5591;42.626;23.380;2023-02-22T07:12:23;7.00;;;4.33;;
11076;SDS011;5591;42.626;23.380;2023-02-22T07:14:49;10.97;;;6.93;;
11076;SDS011;5591;42.626;23.380;2023-02-22T07:17:21;11.87;;;8.37;;
11076;SDS011;5591;42.626;23.380;2023-02-22T07:19:47;15.37;;;8.77;;
11076;SDS011;5591;42.626;23.380;2023-02-22T07:22:14;13.87;;;9.00;;
11076;SDS011;5591;42.626;23.380;2023-02-22T07:24:41;17.67;;;9.90;;
11076;SDS011;5591;42.626;23.380;2023-02-22T07:42:57;18.90;;;12.33;;
11076;SDS011;5591;42.626;23.380;2023-02-22T07:45:24;24.27;;;14.07;;
11076;SDS011;5591;42.626;23.380;2023-02-22T07:47:51;18.93;;;10.07;;
11076;SDS011;5591;42.626;23.380;2023-02-22T07:50:19;16.67;;;11.07;;
11076;SDS011;5591;42.626;23.380;2023-02-22T07:52:45;16.20;;;11.73;;
11076;SDS011;5591;42.626;23.380;2023-02-22T07:55:12;15.30;;;9.90;;
11076;SDS011;5591;42.626;23.380;2023-02-22T07:57:39;17.87;;;9.17;;
11076;SDS011;5591;42.626;23.380;2023-02-22T08:00:09;16.70;;;11.60;;
11076;SDS011;5591;42.626;23.380;2023-02-22T08:02:35;19.40;;;9.53;;
11076;SDS011;5591;42.626;23.380;2023-02-22T08:05:02;18.70;;;12.37;;
11076;SDS011;5591;42.626;23.380;2023-02-22T08:07:28;18.87;;;11.83;;
11076;SDS011;5591;42.626;23.380;2023-02-22T08:09:57;21.17;;;10.33;;
11076;SDS011;5591;42.626;23.380;2023-02-22T08:12:24;16.57;;;10.30;;
11076;SDS011;5591;42.626;23.380;2023-02-22T08:14:50;17.67;;;8.73;;
11076;SDS011;5591;42.626;23.380;2023-02-22T08:17:18;14.53;;;9.10;;
11076;SDS011;5591;42.626;23.380;2023-02-22T08:19:46;14.97;;;8.30;;
11076;SDS011;5591;42.626;23.380;2023-02-22T08:22:13;16.20;;;9.80;;
11076;SDS011;5591;42.626;23.380;2023-02-22T08:24:39;15.97;;;9.00;;
11076;SDS011;5591;42.626;23.380;2023-02-22T08:27:06;15.20;;;8.43;;
11076;SDS011;5591;42.626;23.380;2023-02-22T08:29:32;18.47;;;9.53;;
11076;SDS011;5591;42.626;23.380;2023-02-22T08:31:59;14.60;;;8.93;;
11076;SDS011;5591;42.626;23.380;2023-02-22T08:34:27;16.37;;;9.23;;
11076;SDS011;5591;42.626;23.380;2023-02-22T08:36:53;24.27;;;9.80;;
11076;SDS011;5591;42.626;23.380;2023-02-22T08:39:20;17.30;;;8.53;;
11076;SDS011;5591;42.626;23.380;2023-02-22T08:41:47;25.03;;;8.27;;
11076;SDS011;5591;42.626;23.380;2023-02-22T08:44:13;36.73;;;26.90;;
11076;SDS011;5591;42.626;23.380;2023-02-22T08:46:40;25.83;;;14.27;;
11076;SDS011;5591;42.626;23.380;2023-02-22T08:49:06;17.43;;;10.40;;
11076;SDS011;5591;42.626;23.380;2023-02-22T08:51:34;16.27;;;8.90;;
11076;SDS011;5591;42.626;23.380;2023-02-22T08:54:01;15.20;;;9.33;;
11076;SDS011;5591;42.626;23.380;2023-02-22T08:56:28;15.63;;;8.97;;
11076;SDS011;5591;42.626;23.380;2023-02-22T08:58:55;13.60;;;8.70;;
11076;SDS011;5591;42.626;23.380;2023-02-22T09:01:21;21.57;;;10.00;;
11076;SDS011;5591;42.626;23.380;2023-02-22T09:03:48;15.47;;;9.03;;
11076;SDS011;5591;42.626;23.380;2023-02-22T09:06:15;19.93;;;8.57;;
11076;SDS011;5591;42.626;23.380;2023-02-22T09:08:43;17.20;;;8.97;;
11076;SDS011;5591;42.626;23.380;2023-02-22T09:11:10;15.33;;;7.90;;
11076;SDS011;5591;42.626;23.380;2023-02-22T09:13:36;14.07;;;8.00;;
11076;SDS011;5591;42.626;23.380;2023-02-22T09:16:03;16.67;;;7.97;;
11076;SDS011;5591;42.626;23.380;2023-02-22T09:18:30;12.27;;;6.90;;
11076;SDS011;5591;42.626;23.380;2023-02-22T09:20:57;9.97;;;6.13;;
11076;SDS011;5591;42.626;23.380;2023-02-22T09:23:24;8.97;;;5.10;;
11076;SDS011;5591;42.626;23.380;2023-02-22T09:25:52;10.60;;;5.87;;
11076;SDS011;5591;42.626;23.380;2023-02-22T09:28:19;9.13;;;5.57;;
11076;SDS011;5591;42.626;23.380;2023-02-22T09:30:46;6.30;;;4.60;;
11076;SDS011;5591;42.626;23.380;2023-02-22T09:33:13;6.87;;;4.83;;
11076;SDS011;5591;42.626;23.380;2023-02-22T09:35:40;7.70;;;4.93;;
11076;SDS011;5591;42.626;23.380;2023-02-22T09:38:10;8.33;;;5.10;;
11076;SDS011;5591;42.626;23.380;2023-02-22T09:40:39;8.60;;;5.20;;
11076;SDS011;5591;42.626;23.380;2023-02-22T09:43:14;9.17;;;5.27;;
11076;SDS011;5591;42.626;23.380;2023-02-22T09:45:44;7.77;;;5.03;;
11076;SDS011;5591;42.626;23.380;2023-02-22T09:48:15;8.30;;;5.27;;
11076;SDS011;5591;42.626;23.380;2023-02-22T09:50:43;14.97;;;10.67;;
11076;SDS011;5591;42.626;23.380;2023-02-22T09:53:13;13.27;;;9.13;;
11076;SDS011;5591;42.626;23.380;2023-02-22T09:55:47;7.93;;;3.77;;
11076;SDS011;5591;42.626;23.380;2023-02-22T09:58:18;6.97;;;3.47;;
11076;SDS011;5591;42.626;23.380;2023-02-22T10:00:45;6.23;;;3.60;;
11076;SDS011;5591;42.626;23.380;2023-02-22T10:03:17;4.37;;;3.47;;
11076;SDS011;5591;42.626;23.380;2023-02-22T10:05:48;4.87;;;3.70;;
11076;SDS011;5591;42.626;23.380;2023-02-22T10:08:17;3.63;;;3.10;;
11076;SDS011;5591;42.626;23.380;2023-02-22T10:10:45;5.03;;;2.90;;
11076;SDS011;5591;42.626;23.380;2023-02-22T10:13:20;3.87;;;3.17;;
11076;SDS011;5591;42.626;23.380;2023-02-22T10:15:49;5.63;;;3.30;;
11076;SDS011;5591;42.626;23.380;2023-02-22T10:18:25;6.50;;;3.10;;
11076;SDS011;5591;42.626;23.380;2023-02-22T10:20:58;8.67;;;3.40;;
11076;SDS011;5591;42.626;23.380;2023-02-22T10:23:27;4.40;;;3.20;;
11076;SDS011;5591;42.626;23.380;2023-02-22T10:25:58;4.30;;;3.37;;
11076;SDS011;5591;42.626;23.380;2023-02-22T10:28:30;5.70;;;3.40;;
11076;SDS011;5591;42.626;23.380;2023-02-22T10:31:01;6.23;;;3.40;;
11076;SDS011;5591;42.626;23.380;2023-02-22T10:33:29;7.70;;;3.67;;
11076;SDS011;5591;42.626;23.380;2023-02-22T10:35:57;6.80;;;3.53;;
11076;SDS011;5591;42.626;23.380;2023-02-22T10:38:24;11.13;;;6.50;;
11076;SDS011;5591;42.626;23.380;2023-02-22T10:40:52;5.97;;;4.63;;
11076;SDS011;5591;42.626;23.380;2023-02-22T10:43:20;9.07;;;3.80;;
11076;SDS011;5591;42.626;23.380;2023-02-22T10:45:48;7.40;;;3.90;;
11076;SDS011;5591;42.626;23.380;2023-02-22T10:48:17;5.13;;;3.83;;
11076;SDS011;5591;42.626;23.380;2023-02-22T10:50:45;7.47;;;3.70;;
11076;SDS011;5591;42.626;23.380;2023-02-22T10:53:12;6.00;;;3.80;;
11076;SDS011;5591;42.626;23.380;2023-02-22T10:58:21;5.57;;;3.70;;
11076;SDS011;5591;42.626;23.380;2023-02-22T11:00:49;6.80;;;4.07;;
11076;SDS011;5591;42.626;23.380;2023-02-22T11:03:17;7.60;;;3.70;;
11076;SDS011;5591;42.626;23.380;2023-02-22T11:05:45;6.17;;;3.70;;
11076;SDS011;5591;42.626;23.380;2023-02-22T11:08:17;4.37;;;3.50;;
11076;SDS011;5591;42.626;23.380;2023-02-22T11:10:48;5.00;;;3.37;;
11076;SDS011;5591;42.626;23.380;2023-02-22T11:13:15;3.70;;;3.03;;
11076;SDS011;5591;42.626;23.380;2023-02-22T11:15:42;8.07;;;3.50;;
11076;SDS011;5591;42.626;23.380;2023-02-22T11:18:18;4.77;;;3.20;;
11076;SDS011;5591;42.626;23.380;2023-02-22T11:20:47;4.67;;;3.40;;
11076;SDS011;5591;42.626;23.380;2023-02-22T11:23:14;6.50;;;5.03;;
11076;SDS011;5591;42.626;23.380;2023-02-22T11:25:47;5.83;;;3.50;;
11076;SDS011;5591;42.626;23.380;2023-02-22T11:28:17;4.93;;;3.10;;
11076;SDS011;5591;42.626;23.380;2023-02-22T11:30:55;3.70;;;2.80;;
11076;SDS011;5591;42.626;23.380;2023-02-22T11:33:24;4.70;;;2.90;;
11076;SDS011;5591;42.626;23.380;2023-02-22T11:35:53;3.40;;;2.60;;
11076;SDS011;5591;42.626;23.380;2023-02-22T11:38:21;3.90;;;2.93;;
11076;SDS011;5591;42.626;23.380;2023-02-22T11:41:03;4.97;;;3.00;;
11076;SDS011;5591;42.626;23.380;2023-02-22T11:43:29;5.17;;;3.20;;
11076;SDS011;5591;42.626;23.380;2023-02-22T11:45:57;4.70;;;2.80;;
11076;SDS011;5591;42.626;23.380;2023-02-22T11:48:29;5.20;;;3.07;;
11076;SDS011;5591;42.626;23.380;2023-02-22T11:51:01;4.80;;;3.10;;
11076;SDS011;5591;42.626;23.380;2023-02-22T11:53:30;5.03;;;3.20;;
11076;SDS011;5591;42.626;23.380;2023-02-22T11:56:09;3.73;;;3.30;;
11076;SDS011;5591;42.626;23.380;2023-02-22T11:58:40;4.40;;;3.50;;
11076;SDS011;5591;42.626;23.380;2023-02-22T12:01:10;4.97;;;3.50;;
11076;SDS011;5591;42.626;23.380;2023-02-22T12:06:43;4.13;;;2.83;;
11076;SDS011;5591;42.626;23.380;2023-02-22T12:09:12;5.50;;;3.33;;
11076;SDS011;5591;42.626;23.380;2023-02-22T12:11:42;5.73;;;2.80;;
11076;SDS011;5591;42.626;23.380;2023-02-22T12:14:15;4.10;;;2.87;;
11076;SDS011;5591;42.626;23.380;2023-02-22T12:16:47;4.57;;;3.13;;
11076;SDS011;5591;42.626;23.380;2023-02-22T12:19:20;3.93;;;2.60;;
11076;SDS011;5591;42.626;23.380;2023-02-22T12:21:54;3.63;;;2.73;;
11076;SDS011;5591;42.626;23.380;2023-02-22T12:24:22;4.57;;;3.10;;
11076;SDS011;5591;42.626;23.380;2023-02-22T12:26:50;3.83;;;2.90;;
11076;SDS011;5591;42.626;23.380;2023-02-22T12:29:22;3.13;;;2.70;;
11076;SDS011;5591;42.626;23.380;2023-02-22T12:31:51;4.93;;;2.80;;
11076;SDS011;5591;42.626;23.380;2023-02-22T12:34:20;3.10;;;2.80;;
11076;SDS011;5591;42.626;23.380;2023-02-22T12:36:52;3.27;;;2.77;;
11076;SDS011;5591;42.626;23.380;2023-02-22T12:39:29;3.10;;;2.80;;
11076;SDS011;5591;42.626;23.380;2023-02-22T12:41:58;6.37;;;3.10;;
11076;SDS011;5591;42.626;23.380;2023-02-22T12:44:28;6.60;;;3.77;;
11076;SDS011;5591;42.626;23.380;2023-02-22T12:46:56;6.40;;;4.40;;
11076;SDS011;5591;42.626;23.380;2023-02-22T12:49:25;5.27;;;2.83;;
11076;SDS011;5591;42.626;23.380;2023-02-22T12:51:54;4.57;;;3.27;;
11076;SDS011;5591;42.626;23.380;2023-02-22T12:54:24;3.80;;;3.40;;
11076;SDS011;5591;42.626;23.380;2023-02-22T12:56:55;3.87;;;3.10;;
11076;SDS011;5591;42.626;23.380;2023-02-22T12:59:24;4.67;;;3.50;;
11076;SDS011;5591;42.626;23.380;2023-02-22T13:01:53;3.43;;;2.90;;
11076;SDS011;5591;42.626;23.380;2023-02-22T13:04:22;5.47;;;2.97;;
11076;SDS011;5591;42.626;23.380;2023-02-22T13:06:55;3.93;;;2.93;;
11076;SDS011;5591;42.626;23.380;2023-02-22T13:09:34;5.03;;;3.20;;
11076;SDS011;5591;42.626;23.380;2023-02-22T13:12:05;4.53;;;3.43;;
11076;SDS011;5591;42.626;23.380;2023-02-22T13:14:37;6.10;;;3.70;;
11076;SDS011;5591;42.626;23.380;2023-02-22T13:17:08;4.60;;;3.20;;
11076;SDS011;5591;42.626;23.380;2023-02-22T13:19:40;5.03;;;3.30;;
11076;SDS011;5591;42.626;23.380;2023-02-22T13:22:10;3.77;;;3.10;;
11076;SDS011;5591;42.626;23.380;2023-02-22T13:24:42;3.70;;;3.10;;
11076;SDS011;5591;42.626;23.380;2023-02-22T13:27:15;4.83;;;3.20;;
11076;SDS011;5591;42.626;23.380;2023-02-22T13:29:45;5.37;;;3.77;;
11076;SDS011;5591;42.626;23.380;2023-02-22T13:32:16;4.97;;;3.50;;
11076;SDS011;5591;42.626;23.380;2023-02-22T13:34:50;5.80;;;3.40;;
11076;SDS011;5591;42.626;23.380;2023-02-22T13:37:35;6.67;;;3.27;;
11076;SDS011;5591;42.626;23.380;2023-02-22T13:40:12;4.27;;;3.40;;
11076;SDS011;5591;42.626;23.380;2023-02-22T13:45:42;3.07;;;2.77;;
11076;SDS011;5591;42.626;23.380;2023-02-22T13:48:33;3.77;;;3.20;;
11076;SDS011;5591;42.626;23.380;2023-02-22T13:51:05;4.53;;;2.90;;
11076;SDS011;5591;42.626;23.380;2023-02-22T13:53:37;5.70;;;3.90;;
11076;SDS011;5591;42.626;23.380;2023-02-22T13:56:07;4.27;;;3.17;;
11076;SDS011;5591;42.626;23.380;2023-02-22T13:58:45;3.70;;;3.10;;
11076;SDS011;5591;42.626;23.380;2023-02-22T14:01:17;4.33;;;3.40;;
11076;SDS011;5591;42.626;23.380;2023-02-22T14:06:43;3.60;;;3.30;;
11076;SDS011;5591;42.626;23.380;2023-02-22T14:09:12;3.67;;;3.17;;
11076;SDS011;5591;42.626;23.380;2023-02-22T14:11:43;5.03;;;3.07;;
11076;SDS011;5591;42.626;23.380;2023-02-22T14:14:16;3.57;;;3.27;;
11076;SDS011;5591;42.626;23.380;2023-02-22T14:16:44;4.47;;;3.03;;
11076;SDS011;5591;42.626;23.380;2023-02-22T14:19:31;3.67;;;3.20;;
11076;SDS011;5591;42.626;23.380;2023-02-22T14:21:58;4.97;;;3.30;;
11076;SDS011;5591;42.626;23.380;2023-02-22T14:24:26;3.90;;;2.87;;
11076;SDS011;5591;42.626;23.380;2023-02-22T14:26:54;5.13;;;3.90;;
11076;SDS011;5591;42.626;23.380;2023-02-22T14:29:21;4.03;;;3.07;;
11076;SDS011;5591;42.626;23.380;2023-02-22T14:31:57;7.33;;;4.90;;
11076;SDS011;5591;42.626;23.380;2023-02-22T14:34:37;4.73;;;3.13;;
11076;SDS011;5591;42.626;23.380;2023-02-22T14:37:05;5.40;;;3.70;;
11076;SDS011;5591;42.626;23.380;2023-02-22T14:39:33;4.70;;;3.30;;
11076;SDS011;5591;42.626;23.380;2023-02-22T14:42:03;4.60;;;3.30;;
11076;SDS011;5591;42.626;23.380;2023-02-22T14:44:32;4.03;;;3.60;;
11076;SDS011;5591;42.626;23.380;2023-02-22T14:47:02;5.87;;;3.77;;
11076;SDS011;5591;42.626;23.380;2023-02-22T14:49:30;4.80;;;3.60;;
11076;SDS011;5591;42.626;23.380;2023-02-22T14:51:58;5.33;;;3.67;;
11076;SDS011;5591;42.626;23.380;2023-02-22T14:54:28;5.87;;;3.77;;
11076;SDS011;5591;42.626;23.380;2023-02-22T14:57:00;7.60;;;5.00;;
11076;SDS011;5591;42.626;23.380;2023-02-22T14:59:42;3.67;;;3.33;;
11076;SDS011;5591;42.626;23.380;2023-02-22T15:02:11;7.97;;;5.10;;
11076;SDS011;5591;42.626;23.380;2023-02-22T15:04:39;7.47;;;4.60;;
11076;SDS011;5591;42.626;23.380;2023-02-22T15:07:08;5.07;;;3.60;;
11076;SDS011;5591;42.626;23.380;2023-02-22T15:09:44;4.57;;;3.80;;
11076;SDS011;5591;42.626;23.380;2023-02-22T15:12:14;7.77;;;4.90;;
11076;SDS011;5591;42.626;23.380;2023-02-22T15:14:43;10.23;;;4.60;;
11076;SDS011;5591;42.626;23.380;2023-02-22T15:17:15;5.77;;;3.80;;
11076;SDS011;5591;42.626;23.380;2023-02-22T15:19:43;4.87;;;3.93;;
11076;SDS011;5591;42.626;23.380;2023-02-22T15:22:17;4.10;;;3.70;;
11076;SDS011;5591;42.626;23.380;2023-02-22T15:24:44;7.13;;;3.93;;
11076;SDS011;5591;42.626;23.380;2023-02-22T15:27:13;6.03;;;3.87;;
11076;SDS011;5591;42.626;23.380;2023-02-22T15:29:40;6.80;;;3.80;;
11076;SDS011;5591;42.626;23.380;2023-02-22T15:32:18;6.00;;;4.40;;